sensor_id;sensor_type;location;lat;lon;timestamp;pressure;altitude;pressure_sealevel;temperature;humidity
33859;BME280;20156;47.486;12.074;2023-09-12T00:01:06;93772.25;;;18.89;100.00
33859;BME280;20156;47.486;12.074;2023-09-12T00:03:33;93735.47;;;18.98;100.00
33859;BME280;20156;47.486;12.074;2023-09-12T00:06:00;93715.19;;;18.98;100.00
33859;BME280;20156;47.486;12.074;2023-09-12T00:08:26;93691.06;;;19.05;100.00
33859;BME280;20156;47.486;12.074;2023-09-12T00:11:03;93676.50;;;19.07;100.00
33859;BME280;20156;47.486;12.074;2023-09-12T00:13:29;93689.97;;;18.92;100.00
33859;BME280;20156;47.486;12.074;2023-09-12T00:15:55;93672.78;;;18.94;100.00
33859;BME280;20156;47.486;12.074;2023-09-12T00:18:21;93677.19;;;18.85;100.00
33859;BME280;20156;47.486;12.074;2023-09-12T00:20:46;93666.72;;;18.80;100.00
33859;BME280;20156;47.486;12.074;2023-09-12T00:23:11;93659.91;;;18.93;100.00
33859;BME280;20156;47.486;12.074;2023-09-12T00:25:37;93677.97;;;18.86;100.00
33859;BME280;20156;47.486;12.074;2023-09-12T00:28:02;93687.25;;;18.83;100.00
33859;BME280;20156;47.486;12.074;2023-09-12T00:30:28;93685.88;;;18.72;100.00
33859;BME280;20156;47.486;12.074;2023-09-12T00:32:53;93669.94;;;18.63;100.00
33859;BME280;20156;47.486;12.074;2023-09-12T00:35:18;93645.72;;;18.48;100.00
33859;BME280;20156;47.486;12.074;2023-09-12T00:37:44;93613.31;;;18.61;100.00
33859;BME280;20156;47.486;12.074;2023-09-12T00:40:10;93582.81;;;18.74;100.00
33859;BME280;20156;47.486;12.074;2023-09-12T00:42:35;93565.81;;;18.80;100.00
33859;BME280;20156;47.486;12.074;2023-09-12T00:45:00;93567.47;;;18.89;100.00
33859;BME280;20156;47.486;12.074;2023-09-12T00:47:27;93610.97;;;18.59;100.00
33859;BME280;20156;47.486;12.074;2023-09-12T00:49:55;93623.78;;;18.52;100.00
33859;BME280;20156;47.486;12.074;2023-09-12T00:52:23;93621.22;;;18.47;100.00
33859;BME280;20156;47.486;12.074;2023-09-12T00:54:50;93596.72;;;18.47;100.00
33859;BME280;20156;47.486;12.074;2023-09-12T00:57:16;93576.53;;;18.56;100.00
33859;BME280;20156;47.486;12.074;2023-09-12T00:59:42;93579.59;;;18.63;100.00
33859;BME280;20156;47.486;12.074;2023-09-12T01:02:08;93595.47;;;18.58;100.00
33859;BME280;20156;47.486;12.074;2023-09-12T01:04:35;93605.94;;;18.63;100.00
33859;BME280;20156;47.486;12.074;2023-09-12T01:07:03;93598.88;;;18.58;100.00
33859;BME280;20156;47.486;12.074;2023-09-12T01:09:30;93601.31;;;18.55;100.00
33859;BME280;20156;47.486;12.074;2023-09-12T01:11:56;93599.00;;;18.53;100.00
33859;BME280;20156;47.486;12.074;2023-09-12T01:14:21;93619.94;;;18.45;100.00
33859;BME280;20156;47.486;12.074;2023-09-12T01:16:46;93603.94;;;18.41;100.00
33859;BME280;20156;47.486;12.074;2023-09-12T01:19:13;93576.53;;;18.42;100.00
33859;BME280;20156;47.486;12.074;2023-09-12T01:27:34;93615.25;;;18.42;100.00
33859;BME280;20156;47.486;12.074;2023-09-12T01:30:02;93617.13;;;18.41;100.00
33859;BME280;20156;47.486;12.074;2023-09-12T01:32:29;93595.84;;;18.38;100.00
33859;BME280;20156;47.486;12.074;2023-09-12T01:34:56;93568.44;;;18.39;100.00
33859;BME280;20156;47.486;12.074;2023-09-12T01:37:22;93570.13;;;18.34;100.00
33859;BME280;20156;47.486;12.074;2023-09-12T01:39:47;93547.38;;;18.39;100.00
33859;BME280;20156;47.486;12.074;2023-09-12T01:42:15;93530.09;;;18.46;100.00
33859;BME280;20156;47.486;12.074;2023-09-12T01:44:43;93544.56;;;18.49;100.00
33859;BME280;20156;47.486;12.074;2023-09-12T01:47:10;93562.41;;;18.52;100.00
33859;BME280;20156;47.486;12.074;2023-09-12T01:49:39;93587.56;;;18.44;100.00
33859;BME280;20156;47.486;12.074;2023-09-12T01:52:05;93590.97;;;18.45;100.00
33859;BME280;20156;47.486;12.074;2023-09-12T01:54:32;93634.81;;;18.08;100.00
33859;BME280;20156;47.486;12.074;2023-09-12T01:56:58;93610.28;;;17.94;100.00
33859;BME280;20156;47.486;12.074;2023-09-12T01:59:24;93583.03;;;18.03;100.00
33859;BME280;20156;47.486;12.074;2023-09-12T02:01:50;93558.50;;;18.22;100.00
33859;BME280;20156;47.486;12.074;2023-09-12T02:04:16;93521.72;;;18.30;100.00
33859;BME280;20156;47.486;12.074;2023-09-12T02:06:41;93510.63;;;18.33;100.00
33859;BME280;20156;47.486;12.074;2023-09-12T02:09:07;93534.88;;;18.03;100.00
33859;BME280;20156;47.486;12.074;2023-09-12T02:11:32;93529.63;;;18.03;100.00
33859;BME280;20156;47.486;12.074;2023-09-12T02:13:57;93518.41;;;17.97;100.00
33859;BME280;20156;47.486;12.074;2023-09-12T02:16:23;93495.59;;;17.93;100.00
33859;BME280;20156;47.486;12.074;2023-09-12T02:18:48;93492.75;;;17.89;100.00
33859;BME280;20156;47.486;12.074;2023-09-12T02:21:14;93489.06;;;17.90;100.00
33859;BME280;20156;47.486;12.074;2023-09-12T02:23:41;93475.59;;;17.92;100.00
33859;BME280;20156;47.486;12.074;2023-09-12T02:26:06;93479.31;;;17.91;100.00
33859;BME280;20156;47.486;12.074;2023-09-12T02:28:32;93489.75;;;17.82;100.00
33859;BME280;20156;47.486;12.074;2023-09-12T02:30:57;93513.94;;;17.65;100.00
33859;BME280;20156;47.486;12.074;2023-09-12T02:33:23;93497.72;;;17.77;100.00
33859;BME280;20156;47.486;12.074;2023-09-12T02:35:48;93488.38;;;17.85;100.00
33859;BME280;20156;47.486;12.074;2023-09-12T02:38:13;93487.78;;;17.74;100.00
33859;BME280;20156;47.486;12.074;2023-09-12T02:40:39;93455.25;;;17.84;100.00
33859;BME280;20156;47.486;12.074;2023-09-12T02:43:04;93417.53;;;18.02;100.00
33859;BME280;20156;47.486;12.074;2023-09-12T02:45:30;93409.16;;;18.00;100.00
33859;BME280;20156;47.486;12.074;2023-09-12T02:47:55;93415.31;;;17.82;100.00
33859;BME280;20156;47.486;12.074;2023-09-12T02:50:21;93460.84;;;17.50;100.00
33859;BME280;20156;47.486;12.074;2023-09-12T02:52:47;93452.44;;;17.61;100.00
33859;BME280;20156;47.486;12.074;2023-09-12T02:55:12;93462.09;;;17.52;100.00
33859;BME280;20156;47.486;12.074;2023-09-12T02:57:37;93434.63;;;17.58;100.00
33859;BME280;20156;47.486;12.074;2023-09-12T03:00:04;93424.59;;;17.60;100.00
33859;BME280;20156;47.486;12.074;2023-09-12T03:02:32;93408.22;;;17.63;100.00
33859;BME280;20156;47.486;12.074;2023-09-12T03:04:57;93417.59;;;17.56;100.00
33859;BME280;20156;47.486;12.074;2023-09-12T03:07:23;93418.84;;;17.58;100.00
33859;BME280;20156;47.486;12.074;2023-09-12T03:09:49;93413.78;;;17.62;100.00
33859;BME280;20156;47.486;12.074;2023-09-12T03:12:17;93440.25;;;17.38;100.00
33859;BME280;20156;47.486;12.074;2023-09-12T03:14:42;93465.06;;;17.32;100.00
33859;BME280;20156;47.486;12.074;2023-09-12T03:17:08;93427.44;;;17.50;100.00
33859;BME280;20156;47.486;12.074;2023-09-12T03:19:33;93414.66;;;17.57;100.00
33859;BME280;20156;47.486;12.074;2023-09-12T03:21:59;93411.16;;;17.62;100.00
33859;BME280;20156;47.486;12.074;2023-09-12T03:24:24;93440.75;;;17.40;100.00
33859;BME280;20156;47.486;12.074;2023-09-12T03:26:51;93441.19;;;17.28;100.00
33859;BME280;20156;47.486;12.074;2023-09-12T03:29:16;93396.16;;;17.35;100.00
33859;BME280;20156;47.486;12.074;2023-09-12T03:31:42;93370.72;;;17.44;100.00
33859;BME280;20156;47.486;12.074;2023-09-12T03:34:07;93343.88;;;17.47;100.00
33859;BME280;20156;47.486;12.074;2023-09-12T03:36:33;93319.50;;;17.41;100.00
33859;BME280;20156;47.486;12.074;2023-09-12T03:38:58;93321.06;;;17.42;100.00
33859;BME280;20156;47.486;12.074;2023-09-12T03:41:24;93335.00;;;17.43;100.00
33859;BME280;20156;47.486;12.074;2023-09-12T03:43:53;93368.59;;;17.32;100.00
33859;BME280;20156;47.486;12.074;2023-09-12T03:46:19;93372.69;;;17.38;100.00
33859;BME280;20156;47.486;12.074;2023-09-12T03:48:44;93371.00;;;17.42;100.00
33859;BME280;20156;47.486;12.074;2023-09-12T03:51:11;93371.00;;;17.42;100.00
33859;BME280;20156;47.486;12.074;2023-09-12T03:53:36;93351.75;;;17.47;100.00
33859;BME280;20156;47.486;12.074;2023-09-12T03:56:02;93353.09;;;17.44;100.00
33859;BME280;20156;47.486;12.074;2023-09-12T03:58:27;93368.78;;;17.36;100.00
33859;BME280;20156;47.486;12.074;2023-09-12T04:00:53;93414.06;;;17.00;100.00
33859;BME280;20156;47.486;12.074;2023-09-12T04:03:19;93450.38;;;16.79;100.00
33859;BME280;20156;47.486;12.074;2023-09-12T04:05:46;93425.31;;;16.87;100.00
33859;BME280;20156;47.486;12.074;2023-09-12T04:08:12;93403.28;;;17.02;100.00
33859;BME280;20156;47.486;12.074;2023-09-12T04:10:38;93383.91;;;17.11;100.00
33859;BME280;20156;47.486;12.074;2023-09-12T04:13:03;93383.38;;;17.14;100.00
33859;BME280;20156;47.486;12.074;2023-09-12T04:15:28;93371.88;;;17.24;100.00
33859;BME280;20156;47.486;12.074;2023-09-12T04:17:54;93352.50;;;17.20;100.00
33859;BME280;20156;47.486;12.074;2023-09-12T04:20:19;93332.25;;;17.21;100.00
33859;BME280;20156;47.486;12.074;2023-09-12T04:22:45;93342.16;;;17.10;100.00
33859;BME280;20156;47.486;12.074;2023-09-12T04:25:10;93341.31;;;17.14;100.00
33859;BME280;20156;47.486;12.074;2023-09-12T04:27:36;93335.34;;;17.09;100.00
33859;BME280;20156;47.486;12.074;2023-09-12T04:30:01;93323.88;;;17.19;100.00
33859;BME280;20156;47.486;12.074;2023-09-12T04:32:27;93350.09;;;16.91;100.00
33859;BME280;20156;47.486;12.074;2023-09-12T04:34:52;93344.69;;;17.01;100.00
33859;BME280;20156;47.486;12.074;2023-09-12T04:37:18;93343.34;;;17.04;100.00
33859;BME280;20156;47.486;12.074;2023-09-12T04:39:44;93357.53;;;17.03;100.00
33859;BME280;20156;47.486;12.074;2023-09-12T04:42:09;93361.59;;;16.95;100.00
33859;BME280;20156;47.486;12.074;2023-09-12T04:44:36;93371.56;;;16.79;100.00
33859;BME280;20156;47.486;12.074;2023-09-12T04:47:01;93348.06;;;16.88;100.00
33859;BME280;20156;47.486;12.074;2023-09-12T04:49:27;93385.00;;;16.59;100.00
33859;BME280;20156;47.486;12.074;2023-09-12T04:51:53;93363.09;;;16.69;100.00
33859;BME280;20156;47.486;12.074;2023-09-12T04:54:18;93350.00;;;16.82;100.00
33859;BME280;20156;47.486;12.074;2023-09-12T04:56:44;93356.06;;;16.97;100.00
33859;BME280;20156;47.486;12.074;2023-09-12T04:59:09;93360.84;;;17.08;100.00
33859;BME280;20156;47.486;12.074;2023-09-12T05:01:34;93412.75;;;16.84;100.00
33859;BME280;20156;47.486;12.074;2023-09-12T05:04:00;93432.91;;;16.89;100.00
33859;BME280;20156;47.486;12.074;2023-09-12T05:06:25;93450.22;;;16.90;100.00
33859;BME280;20156;47.486;12.074;2023-09-12T05:08:51;93443.63;;;16.92;100.00
33859;BME280;20156;47.486;12.074;2023-09-12T05:11:16;93469.91;;;16.73;100.00
33859;BME280;20156;47.486;12.074;2023-09-12T05:13:42;93461.16;;;16.78;100.00
33859;BME280;20156;47.486;12.074;2023-09-12T05:16:08;93451.16;;;16.80;100.00
33859;BME280;20156;47.486;12.074;2023-09-12T05:18:33;93425.44;;;16.77;100.00
33859;BME280;20156;47.486;12.074;2023-09-12T05:20:58;93392.22;;;16.86;100.00
33859;BME280;20156;47.486;12.074;2023-09-12T05:23:24;93374.09;;;17.03;100.00
33859;BME280;20156;47.486;12.074;2023-09-12T05:25:49;93369.16;;;17.16;100.00
33859;BME280;20156;47.486;12.074;2023-09-12T05:28:15;93363.41;;;17.27;100.00
33859;BME280;20156;47.486;12.074;2023-09-12T05:30:42;93358.16;;;17.41;100.00
33859;BME280;20156;47.486;12.074;2023-09-12T05:33:08;93371.78;;;17.43;100.00
33859;BME280;20156;47.486;12.074;2023-09-12T05:35:33;93380.16;;;17.45;100.00
33859;BME280;20156;47.486;12.074;2023-09-12T05:37:58;93403.75;;;17.36;100.00
33859;BME280;20156;47.486;12.074;2023-09-12T05:40:24;93406.69;;;17.49;100.00
33859;BME280;20156;47.486;12.074;2023-09-12T05:42:49;93406.97;;;17.61;100.00
33859;BME280;20156;47.486;12.074;2023-09-12T05:45:15;93424.16;;;17.72;100.00
33859;BME280;20156;47.486;12.074;2023-09-12T05:47:40;93455.31;;;17.79;100.00
33859;BME280;20156;47.486;12.074;2023-09-12T05:50:06;93475.50;;;17.69;100.00
33859;BME280;20156;47.486;12.074;2023-09-12T05:52:32;93465.66;;;17.75;100.00
33859;BME280;20156;47.486;12.074;2023-09-12T05:54:58;93463.34;;;17.87;100.00
33859;BME280;20156;47.486;12.074;2023-09-12T05:57:23;93477.16;;;17.93;100.00
33859;BME280;20156;47.486;12.074;2023-09-12T05:59:49;93488.47;;;18.07;100.00
33859;BME280;20156;47.486;12.074;2023-09-12T06:02:15;93485.19;;;18.15;100.00
33859;BME280;20156;47.486;12.074;2023-09-12T06:04:41;93475.41;;;18.29;100.00
33859;BME280;20156;47.486;12.074;2023-09-12T06:07:06;93510.91;;;18.18;100.00
33859;BME280;20156;47.486;12.074;2023-09-12T06:09:32;93563.38;;;18.28;100.00
33859;BME280;20156;47.486;12.074;2023-09-12T06:11:57;93607.56;;;18.45;100.00
33859;BME280;20156;47.486;12.074;2023-09-12T06:14:23;93646.50;;;18.48;100.00
33859;BME280;20156;47.486;12.074;2023-09-12T06:16:48;93662.81;;;18.64;100.00
33859;BME280;20156;47.486;12.074;2023-09-12T06:19:14;93685.03;;;18.58;100.00
33859;BME280;20156;47.486;12.074;2023-09-12T06:21:40;93686.06;;;18.76;100.00
33859;BME280;20156;47.486;12.074;2023-09-12T06:24:20;93719.16;;;18.82;100.00
33859;BME280;20156;47.486;12.074;2023-09-12T06:26:46;93712.63;;;18.93;100.00
33859;BME280;20156;47.486;12.074;2023-09-12T06:29:13;93734.13;;;19.00;100.00
33859;BME280;20156;47.486;12.074;2023-09-12T06:31:39;93743.00;;;19.18;100.00
33859;BME280;20156;47.486;12.074;2023-09-12T06:34:06;93780.78;;;19.27;100.00
33859;BME280;20156;47.486;12.074;2023-09-12T06:36:32;93810.09;;;19.26;100.00
33859;BME280;20156;47.486;12.074;2023-09-12T06:38:58;93831.81;;;19.50;100.00
33859;BME280;20156;47.486;12.074;2023-09-12T06:41:24;93862.31;;;19.56;100.00
33859;BME280;20156;47.486;12.074;2023-09-12T06:43:50;93874.03;;;19.64;100.00
33859;BME280;20156;47.486;12.074;2023-09-12T06:46:15;93872.78;;;19.61;100.00
33859;BME280;20156;47.486;12.074;2023-09-12T06:48:45;93849.72;;;19.80;100.00
33859;BME280;20156;47.486;12.074;2023-09-12T06:51:10;93886.97;;;19.93;100.00
33859;BME280;20156;47.486;12.074;2023-09-12T06:53:36;93902.91;;;20.01;100.00
33859;BME280;20156;47.486;12.074;2023-09-12T06:56:05;93870.16;;;20.02;100.00
33859;BME280;20156;47.486;12.074;2023-09-12T06:58:30;93892.81;;;20.17;100.00
33859;BME280;20156;47.486;12.074;2023-09-12T07:01:01;93920.19;;;20.21;100.00
33859;BME280;20156;47.486;12.074;2023-09-12T07:03:27;93999.22;;;20.31;100.00
33859;BME280;20156;47.486;12.074;2023-09-12T07:05:52;93998.56;;;20.26;100.00
33859;BME280;20156;47.486;12.074;2023-09-12T07:08:17;93971.34;;;20.39;100.00
33859;BME280;20156;47.486;12.074;2023-09-12T07:10:44;93988.09;;;20.48;100.00
33859;BME280;20156;47.486;12.074;2023-09-12T07:13:10;94060.44;;;20.66;100.00
33859;BME280;20156;47.486;12.074;2023-09-12T07:15:36;94081.59;;;20.66;100.00
33859;BME280;20156;47.486;12.074;2023-09-12T07:18:01;94041.13;;;20.79;100.00
33859;BME280;20156;47.486;12.074;2023-09-12T07:20:27;93983.25;;;20.91;100.00
33859;BME280;20156;47.486;12.074;2023-09-12T07:22:53;94007.50;;;21.07;100.00
33859;BME280;20156;47.486;12.074;2023-09-12T07:25:18;94067.75;;;20.96;100.00
33859;BME280;20156;47.486;12.074;2023-09-12T07:27:46;94087.81;;;21.11;100.00
33859;BME280;20156;47.486;12.074;2023-09-12T07:30:11;94105.75;;;21.28;100.00
33859;BME280;20156;47.486;12.074;2023-09-12T07:32:37;94118.84;;;21.33;100.00
33859;BME280;20156;47.486;12.074;2023-09-12T07:35:02;94140.72;;;21.39;100.00
33859;BME280;20156;47.486;12.074;2023-09-12T07:37:28;94176.06;;;21.56;100.00
33859;BME280;20156;47.486;12.074;2023-09-12T07:39:53;94166.41;;;21.74;100.00
33859;BME280;20156;47.486;12.074;2023-09-12T07:42:22;94140.53;;;21.93;100.00
33859;BME280;20156;47.486;12.074;2023-09-12T07:44:48;94185.16;;;22.00;100.00
33859;BME280;20156;47.486;12.074;2023-09-12T07:47:13;94220.19;;;21.97;100.00
33859;BME280;20156;47.486;12.074;2023-09-12T07:49:39;94253.72;;;22.15;100.00
33859;BME280;20156;47.486;12.074;2023-09-12T07:52:05;94250.25;;;22.06;100.00
33859;BME280;20156;47.486;12.074;2023-09-12T07:54:31;94229.03;;;22.06;100.00
33859;BME280;20156;47.486;12.074;2023-09-12T07:56:56;94236.94;;;22.20;100.00
33859;BME280;20156;47.486;12.074;2023-09-12T07:59:22;94229.91;;;22.38;100.00
33859;BME280;20156;47.486;12.074;2023-09-12T08:01:47;94255.19;;;22.44;100.00
33859;BME280;20156;47.486;12.074;2023-09-12T08:04:12;94288.78;;;22.71;100.00
33859;BME280;20156;47.486;12.074;2023-09-12T08:06:40;94308.19;;;22.58;100.00
33859;BME280;20156;47.486;12.074;2023-09-12T08:09:06;94280.69;;;22.76;100.00
33859;BME280;20156;47.486;12.074;2023-09-12T08:11:31;94250.06;;;22.92;100.00
33859;BME280;20156;47.486;12.074;2023-09-12T08:13:57;94324.53;;;23.18;100.00
33859;BME280;20156;47.486;12.074;2023-09-12T08:16:22;94306.81;;;23.05;100.00
33859;BME280;20156;47.486;12.074;2023-09-12T08:18:48;94297.16;;;23.09;100.00
33859;BME280;20156;47.486;12.074;2023-09-12T08:21:13;94314.34;;;23.11;100.00
33859;BME280;20156;47.486;12.074;2023-09-12T08:23:39;94307.78;;;23.40;100.00
33859;BME280;20156;47.486;12.074;2023-09-12T08:26:04;94410.88;;;23.47;100.00
33859;BME280;20156;47.486;12.074;2023-09-12T08:28:30;94463.84;;;23.65;100.00
33859;BME280;20156;47.486;12.074;2023-09-12T08:30:55;94421.31;;;23.88;100.00
33859;BME280;20156;47.486;12.074;2023-09-12T08:33:20;94499.75;;;24.16;100.00
33859;BME280;20156;47.486;12.074;2023-09-12T08:35:46;94606.94;;;23.45;100.00
33859;BME280;20156;47.486;12.074;2023-09-12T08:38:11;94577.75;;;23.67;100.00
33859;BME280;20156;47.486;12.074;2023-09-12T08:40:37;94581.81;;;24.09;100.00
33859;BME280;20156;47.486;12.074;2023-09-12T08:43:03;94681.34;;;23.81;100.00
33859;BME280;20156;47.486;12.074;2023-09-12T08:45:29;94681.44;;;23.89;100.00
33859;BME280;20156;47.486;12.074;2023-09-12T08:47:58;94691.13;;;24.08;100.00
33859;BME280;20156;47.486;12.074;2023-09-12T08:50:24;94590.19;;;24.47;100.00
33859;BME280;20156;47.486;12.074;2023-09-12T08:52:50;94550.81;;;24.67;100.00
33859;BME280;20156;47.486;12.074;2023-09-12T08:55:16;94559.41;;;24.64;100.00
33859;BME280;20156;47.486;12.074;2023-09-12T08:57:42;94649.34;;;24.84;100.00
33859;BME280;20156;47.486;12.074;2023-09-12T09:00:09;94638.50;;;25.03;100.00
33859;BME280;20156;47.486;12.074;2023-09-12T09:02:43;94665.97;;;25.21;100.00
33859;BME280;20156;47.486;12.074;2023-09-12T09:05:10;94645.50;;;25.38;100.00
33859;BME280;20156;47.486;12.074;2023-09-12T09:07:40;94637.03;;;25.45;100.00
33859;BME280;20156;47.486;12.074;2023-09-12T09:10:09;94653.38;;;25.61;100.00
33859;BME280;20156;47.486;12.074;2023-09-12T09:12:35;94652.00;;;25.72;100.00
33859;BME280;20156;47.486;12.074;2023-09-12T09:15:26;94705.16;;;25.86;100.00
33859;BME280;20156;47.486;12.074;2023-09-12T09:17:54;94766.44;;;25.68;100.00
33859;BME280;20156;47.486;12.074;2023-09-12T09:20:33;94798.00;;;25.75;100.00
33859;BME280;20156;47.486;12.074;2023-09-12T09:23:07;94822.75;;;25.75;100.00
33859;BME280;20156;47.486;12.074;2023-09-12T09:25:39;94832.53;;;25.89;100.00
33859;BME280;20156;47.486;12.074;2023-09-12T09:28:05;94814.84;;;26.10;100.00
33859;BME280;20156;47.486;12.074;2023-09-12T09:30:45;94938.84;;;25.37;100.00
33859;BME280;20156;47.486;12.074;2023-09-12T09:33:12;94960.44;;;25.71;100.00
33859;BME280;20156;47.486;12.074;2023-09-12T09:35:49;94947.75;;;25.77;100.00
33859;BME280;20156;47.486;12.074;2023-09-12T09:38:19;94832.31;;;26.33;100.00
33859;BME280;20156;47.486;12.074;2023-09-12T09:40:45;94972.38;;;26.05;100.00
33859;BME280;20156;47.486;12.074;2023-09-12T09:43:12;94924.41;;;26.22;100.00
33859;BME280;20156;47.486;12.074;2023-09-12T09:45:44;94873.47;;;26.41;100.00
33859;BME280;20156;47.486;12.074;2023-09-12T09:48:10;94860.41;;;26.22;100.00
33859;BME280;20156;47.486;12.074;2023-09-12T09:50:42;94853.38;;;26.44;100.00
33859;BME280;20156;47.486;12.074;2023-09-12T09:53:07;94955.63;;;26.61;100.00
33859;BME280;20156;47.486;12.074;2023-09-12T09:55:35;94962.06;;;26.60;100.00
33859;BME280;20156;47.486;12.074;2023-09-12T09:58:01;94916.34;;;26.53;100.00
33859;BME280;20156;47.486;12.074;2023-09-12T10:00:29;94953.22;;;26.43;100.00
33859;BME280;20156;47.486;12.074;2023-09-12T10:02:55;94885.09;;;26.54;100.00
33859;BME280;20156;47.486;12.074;2023-09-12T10:05:21;94867.84;;;26.94;100.00
33859;BME280;20156;47.486;12.074;2023-09-12T10:07:49;94905.13;;;27.08;100.00
33859;BME280;20156;47.486;12.074;2023-09-12T10:10:18;94921.44;;;26.89;100.00
33859;BME280;20156;47.486;12.074;2023-09-12T10:12:49;94975.50;;;27.21;100.00
33859;BME280;20156;47.486;12.074;2023-09-12T10:15:18;94996.28;;;27.67;100.00
33859;BME280;20156;47.486;12.074;2023-09-12T10:17:47;94960.59;;;27.72;100.00
33859;BME280;20156;47.486;12.074;2023-09-12T10:20:20;94899.91;;;27.29;100.00
33859;BME280;20156;47.486;12.074;2023-09-12T10:23:05;94912.78;;;27.36;100.00
33859;BME280;20156;47.486;12.074;2023-09-12T10:25:35;94914.53;;;27.40;100.00
33859;BME280;20156;47.486;12.074;2023-09-12T10:28:03;94934.31;;;27.74;100.00
33859;BME280;20156;47.486;12.074;2023-09-12T10:30:29;94937.47;;;27.41;100.00
33859;BME280;20156;47.486;12.074;2023-09-12T10:32:57;94965.13;;;27.54;100.00
33859;BME280;20156;47.486;12.074;2023-09-12T10:35:23;94944.25;;;27.30;100.00
33859;BME280;20156;47.486;12.074;2023-09-12T10:37:49;94928.84;;;27.10;100.00
33859;BME280;20156;47.486;12.074;2023-09-12T10:40:16;94912.63;;;27.49;100.00
33859;BME280;20156;47.486;12.074;2023-09-12T10:42:42;94912.47;;;27.63;100.00
33859;BME280;20156;47.486;12.074;2023-09-12T10:45:08;94886.25;;;27.86;100.00
33859;BME280;20156;47.486;12.074;2023-09-12T10:47:37;94927.88;;;26.97;100.00
33859;BME280;20156;47.486;12.074;2023-09-12T10:50:04;94933.34;;;27.70;100.00
33859;BME280;20156;47.486;12.074;2023-09-12T10:52:29;94923.91;;;27.81;100.00
33859;BME280;20156;47.486;12.074;2023-09-12T10:54:56;94890.09;;;28.14;100.00
33859;BME280;20156;47.486;12.074;2023-09-12T10:57:21;94897.34;;;28.14;100.00
33859;BME280;20156;47.486;12.074;2023-09-12T11:05:02;94891.66;;;28.15;100.00
33859;BME280;20156;47.486;12.074;2023-09-12T11:12:53;94909.91;;;28.22;100.00
33859;BME280;20156;47.486;12.074;2023-09-12T11:15:21;94862.34;;;28.28;100.00
33859;BME280;20156;47.486;12.074;2023-09-12T11:17:48;94916.03;;;28.82;100.00
33859;BME280;20156;47.486;12.074;2023-09-12T11:20:14;94926.66;;;28.69;100.00
33859;BME280;20156;47.486;12.074;2023-09-12T11:22:44;94921.47;;;29.15;100.00
33859;BME280;20156;47.486;12.074;2023-09-12T11:25:25;94906.28;;;29.40;100.00
33859;BME280;20156;47.486;12.074;2023-09-12T11:30:26;94891.44;;;29.21;100.00
33859;BME280;20156;47.486;12.074;2023-09-12T11:32:53;94877.53;;;29.28;100.00
33859;BME280;20156;47.486;12.074;2023-09-12T11:35:23;94862.22;;;28.95;100.00
33859;BME280;20156;47.486;12.074;2023-09-12T11:37:50;94879.31;;;29.36;100.00
33859;BME280;20156;47.486;12.074;2023-09-12T11:42:58;94836.97;;;29.62;100.00
33859;BME280;20156;47.486;12.074;2023-09-12T11:45:24;94814.50;;;29.22;100.00
33859;BME280;20156;47.486;12.074;2023-09-12T11:47:50;94806.00;;;29.65;100.00
33859;BME280;20156;47.486;12.074;2023-09-12T11:50:29;94788.13;;;29.93;100.00
33859;BME280;20156;47.486;12.074;2023-09-12T11:53:09;94780.41;;;29.68;100.00
33859;BME280;20156;47.486;12.074;2023-09-12T11:55:43;94779.53;;;29.76;100.00
33859;BME280;20156;47.486;12.074;2023-09-12T11:58:16;94759.06;;;29.47;100.00
33859;BME280;20156;47.486;12.074;2023-09-12T12:00:50;94757.28;;;29.05;100.00
33859;BME280;20156;47.486;12.074;2023-09-12T12:03:17;94736.31;;;28.74;100.00
33859;BME280;20156;47.486;12.074;2023-09-12T12:05:43;94700.38;;;28.55;100.00
33859;BME280;20156;47.486;12.074;2023-09-12T12:08:10;94612.75;;;28.31;100.00
33859;BME280;20156;47.486;12.074;2023-09-12T12:10:36;94605.22;;;28.12;100.00
33859;BME280;20156;47.486;12.074;2023-09-12T12:13:03;94629.03;;;28.05;100.00
33859;BME280;20156;47.486;12.074;2023-09-12T12:15:28;94595.03;;;28.05;100.00
33859;BME280;20156;47.486;12.074;2023-09-12T12:17:55;94566.59;;;28.34;100.00
33859;BME280;20156;47.486;12.074;2023-09-12T12:20:21;94645.00;;;28.34;100.00
33859;BME280;20156;47.486;12.074;2023-09-12T12:22:47;94594.66;;;28.61;100.00
33859;BME280;20156;47.486;12.074;2023-09-12T12:25:14;94615.72;;;29.08;100.00
33859;BME280;20156;47.486;12.074;2023-09-12T12:27:40;94755.66;;;29.38;100.00
33859;BME280;20156;47.486;12.074;2023-09-12T12:30:11;94764.41;;;29.83;100.00
33859;BME280;20156;47.486;12.074;2023-09-12T12:32:41;94706.16;;;29.84;100.00
33859;BME280;20156;47.486;12.074;2023-09-12T12:35:07;94681.41;;;30.15;100.00
33859;BME280;20156;47.486;12.074;2023-09-12T12:37:33;94649.81;;;30.08;100.00
33859;BME280;20156;47.486;12.074;2023-09-12T12:40:00;94635.59;;;29.95;100.00
33859;BME280;20156;47.486;12.074;2023-09-12T12:42:39;94626.34;;;29.81;100.00
33859;BME280;20156;47.486;12.074;2023-09-12T12:45:25;94619.81;;;30.06;100.00
33859;BME280;20156;47.486;12.074;2023-09-12T12:47:54;94602.91;;;30.34;100.00
33859;BME280;20156;47.486;12.074;2023-09-12T12:50:20;94598.06;;;30.67;100.00
33859;BME280;20156;47.486;12.074;2023-09-12T12:52:47;94584.03;;;30.74;100.00
33859;BME280;20156;47.486;12.074;2023-09-12T12:55:14;94575.16;;;30.73;100.00
33859;BME280;20156;47.486;12.074;2023-09-12T12:57:42;94569.53;;;30.78;100.00
33859;BME280;20156;47.486;12.074;2023-09-12T13:00:13;94561.13;;;30.64;100.00